Spring Bluff, Georgia
Current Conditions -  °F | °C
As of 6:53 AM on Friday 19 Dec 2014 (Local Time) from KSSI Reporting Station
Clear Clear  
Wind Chill: 44°   Ceiling: Unl
Heat Index: 46°   Visibility: 10mi
Dew Point: 39°   Wind: 5mph
Humidity: 76%   Direction: 350°N
Pressure: 30.11"   Gusts: NA
Location:  31.0438°N, 81.5786°W
Report Text: KSSI 191153Z AUTO 35004KT 10SM CLR 08/04 A3011 RMK AO2 SLP197 T00780039 10094 20072 53007
Loading
Personal Weather Stations






























Interactive Weather Map New forecast layout! Learn more

10-Day Weather Forecast

Advertisements
Track Severe Weather on mobile